La Mata - P.N. Sant Llorenç del Munt i l'Obac





Hora UTC 17:10
Temperatura 6.8 ºC
Humedad 85.5 %
Presión 1011.9 hPa
Pluja 0.0 mm
Velocidad viento 6.1 km/h
Dirección viento N
Radiación solar 0.1 W/m²
Fuel 91.4 %

Datos diarios 2021-12-04



Hora UTC (invierno +1h; verano +2h)
Temperatura (ºC) Humedad (%) Presión (hPa) Velocidad viento (km/h) Precipitación (mm) Fuel (%) Radiación solar (W/m²)
Hora UTC Aire Humedad Presión Vel. Dir. Vel. Max Dir. Intent. máx 5 min. Fuel Rad. Sol.
00:05 3.3 92.4 1016.9 8.7 N 8.7 N 0.0 86.0 0.1
00:10 3.1 92.3 1016.9 7.2 N 18.0 N 0.0 86.4 0.1
00:15 3.1 92.9 1016.8 5.8 N 15.2 N 0.0 87.1 0.1
00:20 3.3 93.5 1016.7 8.9 N 17.3 N 0.0 87.7 0.1
00:25 3.3 93.6 1016.7 3.4 NNE 15.2 N 0.0 88.2 0.1
00:30 3.4 93.8 1016.7 6.6 NNE 13.4 NNE 0.0 88.7 0.1
00:35 3.5 94.0 1016.7 4.8 N 17.6 N 0.0 89.1 0.1
00:40 3.5 94.1 1016.6 4.1 N 19.1 NNW 0.0 89.5 0.1
00:45 3.5 94.2 1016.5 7.5 N 18.4 N 0.0 89.9 0.1
00:50 3.5 94.2 1016.3 6.1 N 19.8 N 0.0 90.2 0.1
00:55 3.5 94.3 1016.1 7.2 N 22.2 N 0.0 90.5 0.1
01:00 3.6 94.4 1016.1 6.6 N 20.1 N 0.0 90.9 0.1
01:05 3.5 94.5 1016.0 8.8 N 21.2 N 0.0 91.2 0.1
01:10 3.5 94.6 1016.0 4.0 N 18.7 NNE 0.0 91.5 0.1
01:15 3.5 94.7 1016.0 5.1 NNE 18.7 N 0.0 91.9 0.1
01:20 3.6 94.8 1016.0 4.8 NNE 13.8 N 0.0 92.2 0.1
01:25 3.6 94.9 1016.0 3.8 N 11.3 NE 0.0 92.6 0.1
01:30 3.7 95.0 1016.1 5.8 N 16.6 NNE 0.0 93.0 0.1
01:35 3.7 95.1 1016.1 4.3 NNE 15.2 NNW 0.0 93.4 0.1
01:40 3.7 95.1 1016.1 2.6 E 8.8 WNW 0.0 93.7 0.1
01:45 3.7 95.1 1016.1 3.1 NNE 9.2 NW 0.0 94.0 0.1
01:50 3.7 95.1 1016.0 3.9 NNE 14.5 NNW 0.0 94.3 0.1
01:55 3.7 95.2 1015.9 6.0 N 16.9 N 0.0 94.6 0.1
02:00 3.7 95.2 1015.9 5.1 N 13.4 NE 0.0 94.9 0.1
02:05 3.7 95.2 1015.9 5.6 NNE 20.5 NNW 0.0 95.2 0.1
02:10 3.7 95.3 1015.9 5.0 NNE 16.9 NW 0.0 95.6 0.1
02:15 3.7 95.4 1015.9 7.1 N 19.1 N 0.0 96.0 0.1
02:20 3.7 95.4 1016.0 6.3 N 18.4 N 0.0 96.3 0.1
02:25 3.7 95.4 1015.9 4.3 N 19.4 WNW 0.0 96.6 0.1
02:30 3.7 95.5 1015.8 8.9 N 21.2 N 0.0 96.9 0.1
02:35 3.7 95.6 1015.8 5.7 NNW 20.8 NNW 0.0 97.3 0.1
02:40 3.8 95.7 1015.7 6.3 NNW 19.8 W 0.0 97.7 0.1
02:45 3.8 95.7 1015.7 5.8 N 15.2 NNE 0.0 98.0 0.1
02:50 3.8 95.6 1015.5 6.5 NNE 20.5 WNW 0.0 98.3 0.1
02:55 3.8 95.6 1015.5 3.8 ENE 13.4 NNE 0.0 98.6 0.1
03:00 3.8 95.7 1015.5 3.9 ESE 16.6 NNE 0.0 98.9 0.1
03:05 3.8 95.7 1015.5 6.9 NNW 24.0 NW 0.0 99.1 0.1
03:10 3.8 95.8 1015.6 6.8 NNW 20.5 N 0.0 99.4 0.1
03:15 3.7 95.8 1015.5 5.8 WNW 18.4 NW 0.0 99.7 0.1
03:20 3.7 95.8 1015.4 4.5 NNW 17.3 NW 0.0 100.0 0.1
03:25 3.7 95.8 1015.3 4.9 NW 19.8 WSW 0.0 100.2 0.1
03:30 3.7 95.8 1015.3 6.6 N 19.1 NNE 0.0 100.4 0.1
03:35 3.7 95.9 1015.2 4.5 NNW 20.8 NNW 0.0 100.8 0.1
03:40 3.6 95.9 1015.2 5.4 NW 18.0 WNW 0.0 101.1 0.1
03:45 3.6 95.8 1015.1 5.3 NW 18.0 NNW 0.0 101.3 0.1
03:50 3.6 95.9 1015.2 5.5 NNW 22.2 WNW 0.0 101.6 0.1
03:55 3.6 95.9 1015.1 3.9 NW 15.9 W 0.0 101.8 0.1
04:00 3.6 96.0 1015.2 5.4 W 19.4 W 0.0 102.1 0.1
04:05 3.6 96.0 1015.3 11.9 WNW 24.3 WNW 0.0 102.4 0.1
04:10 3.6 96.1 1015.3 10.2 WNW 20.8 WNW 0.0 102.8 0.1
04:15 3.6 96.2 1015.2 13.0 WNW 28.6 WNW 0.0 103.1 0.1
04:20 3.6 96.2 1015.2 10.5 WNW 22.9 WNW 0.0 103.4 0.1
04:25 3.7 96.2 1015.2 10.7 WNW 21.9 W 0.0 103.7 0.1
04:30 3.7 96.2 1015.2 7.5 WNW 18.4 NNW 0.0 104.1 0.1
04:35 3.7 96.2 1015.2 5.1 NW 17.3 NNE 0.0 104.5 0.1
04:40 3.7 96.2 1015.1 8.4 WNW 19.8 NW 0.0 104.8 0.1
04:45 3.7 96.2 1015.1 5.3 WNW 16.9 NW 0.0 105.1 0.1
04:50 3.7 96.2 1015.0 8.2 WNW 20.5 WNW 0.0 105.4 0.1
04:55 3.7 96.2 1015.1 5.9 WNW 15.2 WNW 0.0 105.7 0.1
05:00 3.7 96.2 1015.0 5.6 WNW 19.8 W 0.0 106.1 0.1
05:05 3.7 96.3 1015.1 7.5 W 22.6 W 0.0 106.4 0.1
05:10 3.7 96.3 1015.0 5.7 WNW 17.6 W 0.0 106.7 0.1
05:15 3.7 96.3 1015.0 4.3 NW 19.8 WNW 0.0 107.0 0.1
05:20 3.7 96.4 1015.1 3.4 SSW 10.9 WSW 0.0 107.3 0.1
05:25 3.7 96.4 1015.0 4.2 ESE 13.8 W 0.0 107.6 0.1
05:30 3.7 96.4 1015.0 5.4 NNE 20.5 N 0.0 107.8 0.1
05:35 3.7 96.4 1015.0 4.8 NNE 16.9 NE 0.0 108.1 0.1
05:40 3.7 96.4 1014.9 5.6 NE 17.6 ENE 0.0 108.3 0.1
05:45 3.7 96.4 1014.9 4.9 NE 21.2 WNW 0.0 108.6 0.1
05:50 3.7 96.4 1014.9 4.7 ENE 16.6 NNW 0.0 108.8 0.1
05:55 3.7 96.4 1015.0 4.7 NE 17.3 NW 0.0 109.1 0.1
06:00 3.7 96.5 1015.0 5.2 ENE 16.2 N 0.0 109.3 0.1
06:05 3.7 96.5 1015.0 6.5 S 18.7 NNW 0.0 109.5 0.1
06:10 3.7 96.5 1015.0 6.4 NW 21.5 NW 0.0 109.7 0.1
06:15 3.6 96.4 1015.1 5.6 NW 17.3 NW 0.0 109.9 0.1
06:20 3.6 96.4 1015.2 5.5 NW 19.4 NNW 0.0 110.1 0.1
06:25 3.5 96.4 1015.1 6.4 WNW 16.2 WSW 0.0 110.3 0.1
06:30 3.5 96.4 1015.0 7.5 NNW 26.8 WSW 0.0 110.5 0.1
06:35 3.5 96.4 1015.0 5.2 NNW 23.6 NNW 0.0 110.7 0.1
06:40 3.4 96.5 1014.9 5.2 SSE 15.5 NE 0.0 110.9 0.2
06:45 3.4 96.5 1014.9 6.2 NW 22.6 W 0.0 111.1 0.3
06:50 3.3 96.5 1014.9 7.2 NNW 23.6 N 0.0 111.3 0.6
06:55 3.3 96.5 1014.9 5.2 NW 18.7 WSW 0.0 111.5 1.1
07:00 3.3 96.5 1014.9 8.4 WNW 22.9 W 0.0 111.7 1.8
07:05 3.3 96.5 1014.8 5.6 WNW 24.0 WSW 0.0 112.0 2.6
07:10 3.3 96.6 1014.7 7.5 WNW 29.3 WNW 0.0 112.3 3.5
07:15 3.3 96.7 1014.8 10.1 NW 26.1 WNW 0.0 112.6 4.3
07:20 3.4 96.7 1014.7 7.5 NW 22.9 NNW 0.0 112.8 5.6
07:25 3.4 96.7 1014.7 7.2 NW 24.3 WNW 0.0 113.0 8.3
07:30 3.4 96.7 1014.7 7.7 WNW 21.5 NNW 0.0 113.3 13.6
07:35 3.4 96.8 1014.6 5.3 SSE 16.2 NW 0.0 113.5 22.4
07:40 3.4 96.8 1014.7 8.7 WNW 27.5 WSW 0.0 113.7 32.0
07:45 3.4 96.8 1014.8 9.5 NW 29.3 WNW 0.0 113.9 32.9
07:50 3.4 96.8 1014.7 6.2 NW 21.9 NW 0.0 114.0 44.9
07:55 3.5 96.8 1014.7 7.6 WNW 25.1 NNW 0.0 114.1 46.6
08:00 3.4 96.8 1014.7 9.4 NW 24.0 NNW 0.0 114.2 49.0
08:05 3.4 96.8 1014.7 8.5 NW 25.8 NNW 0.0 114.2 46.8
08:10 3.4 96.8 1014.8 6.1 NW 24.0 WSW 0.0 114.4 63.1
08:15 3.4 96.8 1014.7 7.6 NW 22.2 WNW 0.0 114.4 55.2
08:20 3.4 96.8 1014.8 5.4 NNW 22.6 W 0.0 114.5 76.8
08:25 3.4 96.8 1014.8 5.5 NNW 16.9 NW 0.0 114.6 90.5
08:30 3.4 96.8 1014.7 7.3 WNW 26.1 NW 0.0 114.5 100.3
08:35 3.5 96.8 1014.7 5.3 NNW 18.7 WNW 0.0 114.6 112.9
08:40 3.5 96.9 1014.6 4.4 NNE 15.5 NNW 0.0 114.5 122.3
08:45 3.6 96.9 1014.6 8.8 NW 26.1 W 0.0 114.5 160.5
08:50 3.6 96.9 1014.5 8.7 WNW 25.8 WNW 0.0 114.3 190.7
08:55 3.6 96.9 1014.5 7.8 NW 22.9 NW 0.0 114.1 160.1
09:00 3.6 96.9 1014.5 10.3 NW 32.5 NNW 0.0 113.9 207.5
09:05 3.7 96.9 1014.6 6.0 WSW 18.4 WNW 0.0 113.9 248.9
09:10 3.8 97.0 1014.5 8.9 WNW 31.4 NW 0.0 113.4 251.7
09:15 3.9 97.0 1014.6 10.0 WNW 26.8 W 0.0 113.2 308.3
09:20 4.0 97.0 1014.6 9.6 WNW 28.2 WNW 0.0 112.3 306.0
09:25 4.2 97.0 1014.6 9.0 WNW 28.9 W 0.0 111.4 303.0
09:30 4.2 97.0 1014.6 8.4 NW 25.4 NW 0.0 110.4 316.8
09:35 4.3 96.9 1014.6 11.5 WNW 31.1 W 0.0 109.6 334.4
09:40 4.4 96.8 1014.6 11.3 WNW 26.5 NW 0.0 108.5 330.0
09:45 4.4 96.8 1014.5 10.1 W 27.5 WNW 0.0 107.5 316.3
09:50 4.5 96.7 1014.5 12.5 WNW 28.9 WNW 0.0 106.8 349.0
09:55 4.6 96.7 1014.5 11.2 WNW 30.0 WNW 0.0 105.9 322.8
10:00 4.7 96.6 1014.5 11.6 WNW 29.3 WNW 0.0 104.9 352.8
10:05 4.8 96.5 1014.4 14.1 WNW 30.7 WNW 0.0 104.2 359.0
10:10 4.9 96.5 1014.4 12.1 WNW 25.4 WNW 0.0 103.3 365.9
10:15 5.1 96.5 1014.4 14.9 WNW 26.1 WNW 0.0 102.4 375.8
10:20 5.2 96.1 1014.4 15.9 WNW 29.3 W 0.0 101.5 380.4
10:25 5.5 96.0 1014.3 11.9 W 24.7 W 0.0 101.0 383.7
10:30 5.7 95.5 1014.3 14.4 WNW 37.4 WNW 0.0 99.9 389.3
10:35 5.9 94.9 1014.2 8.3 W 30.3 W 0.0 99.3 393.7
10:40 6.3 94.3 1014.2 12.4 W 26.8 W 0.0 98.8 398.7
10:45 6.2 92.4 1014.1 10.2 WNW 26.5 WNW 0.0 97.7 408.5
10:50 6.2 90.3 1014.0 10.8 WNW 29.3 WNW 0.0 96.7 404.0
10:55 6.4 87.6 1013.8 13.3 WNW 30.3 W 0.0 95.9 385.7
11:00 6.5 85.8 1013.7 9.5 WNW 27.9 W 0.0 95.4 414.9
11:05 6.7 84.4 1013.5 9.8 W 28.9 NW 0.0 94.8 422.0
11:10 7.1 83.5 1013.4 7.9 NNW 26.1 WNW 0.0 94.4 438.2
11:15 7.3 82.1 1013.3 7.4 WSW 30.3 W 0.0 93.7 454.4
11:20 7.5 80.7 1013.3 7.4 W 23.6 WNW 0.0 92.9 466.6
11:25 7.6 79.8 1013.2 11.2 WNW 33.2 WNW 0.0 92.0 486.1
11:30 7.6 79.6 1013.2 11.1 WNW 34.6 WNW 0.0 91.2 497.0
11:35 7.7 79.4 1013.2 8.6 NW 36.7 WNW 0.0 90.6 511.8
11:40 7.9 78.4 1013.1 10.3 NW 31.1 NNW 0.0 89.8 511.0
11:45 7.8 78.2 1013.0 9.9 WNW 42.0 W 0.0 89.0 501.2
11:50 7.7 78.2 1012.9 10.1 NW 28.2 WNW 0.0 88.2 491.5
11:55 7.7 78.2 1012.8 15.7 WNW 42.7 W 0.0 87.5 515.4
12:00 7.6 78.2 1012.6 17.9 WNW 39.9 WNW 0.0 86.8 467.7
12:05 7.5 78.9 1012.6 9.6 NW 33.2 WNW 0.0 86.6 456.9
12:10 7.7 78.5 1012.5 11.9 WNW 40.9 WNW 0.0 86.6 503.9
12:15 7.9 77.5 1012.5 12.5 WNW 26.5 NW 0.0 86.1 490.3
12:20 7.7 77.8 1012.4 15.3 WNW 41.6 WNW 0.0 85.3 448.6
12:25 8.0 77.2 1012.6 9.4 WNW 31.1 W 0.0 85.2 487.4
12:30 7.9 76.6 1012.5 14.6 W 31.8 WNW 0.0 84.2 370.4
12:35 7.6 77.9 1012.5 9.8 WNW 31.1 WNW 0.0 83.5 306.7
12:40 7.8 78.0 1012.6 10.3 WNW 27.2 NW 0.0 83.7 409.9
12:45 7.8 77.8 1012.6 10.0 WNW 31.1 WNW 0.0 83.4 377.0
12:50 7.9 77.9 1012.7 9.6 NW 31.8 WNW 0.0 83.4 368.7
12:55 8.0 77.7 1012.8 10.3 WNW 26.5 W 0.0 83.1 413.7
13:00 7.9 77.7 1012.8 14.1 WNW 32.1 WNW 0.0 82.7 381.6
13:05 7.9 78.2 1012.8 8.0 WNW 25.8 NW 0.0 82.5 365.1
13:10 7.7 78.2 1012.7 10.4 WNW 26.5 WNW 0.0 81.8 203.7
13:15 7.4 79.4 1012.6 6.7 WNW 21.9 W 0.0 81.2 138.6
13:20 7.3 80.2 1012.6 7.5 NW 23.3 NW 0.0 81.2 115.4
13:25 7.0 80.8 1012.5 7.4 NW 20.8 WNW 0.0 81.1 103.4
13:30 6.9 81.6 1012.4 7.2 NW 17.6 W 0.0 81.2 86.9
13:35 6.8 82.1 1012.2 6.8 WNW 23.3 WNW 0.0 81.4 68.9
13:40 6.7 82.4 1012.3 7.3 WNW 20.5 WSW 0.0 81.6 50.2
13:45 6.7 82.7 1012.4 7.1 NW 20.1 WNW 0.0 81.8 42.4
13:50 6.7 83.0 1012.4 6.0 NW 18.7 W 0.0 82.1 41.6
13:55 6.6 83.3 1012.3 4.3 WNW 18.0 W 0.0 82.4 43.6
14:00 6.6 83.5 1012.4 8.5 WNW 23.3 WNW 0.0 82.7 45.7
14:05 6.6 83.6 1012.4 5.7 WNW 16.9 SW 0.0 83.0 48.9
14:10 6.6 83.7 1012.2 8.5 WNW 23.6 NW 0.0 83.3 55.8
14:15 6.6 83.8 1012.1 11.0 WNW 32.5 WNW 0.0 83.5 60.3
14:20 6.6 83.8 1012.0 11.1 WNW 25.1 WNW 0.0 83.7 61.2
14:25 6.6 83.6 1012.0 8.1 WNW 26.8 NW 0.0 83.9 56.1
14:30 6.6 83.6 1012.1 8.6 NW 30.3 NNW 0.0 84.1 47.4
14:35 6.6 83.8 1012.1 8.7 NW 23.3 WNW 0.0 84.3 43.5
14:40 6.5 84.0 1012.1 8.1 NW 32.8 W 0.0 84.5 44.6
14:45 6.6 84.0 1012.1 5.1 NW 20.8 NNW 0.0 84.7 48.4
14:50 6.5 84.2 1012.1 7.7 NNW 25.4 NE 0.0 85.0 46.8
14:55 6.6 84.2 1012.1 5.2 NW 15.5 NW 0.0 85.2 47.9
15:00 6.6 84.3 1012.1 6.6 NW 18.7 NW 0.0 85.4 50.6
15:05 6.6 84.4 1012.0 3.9 NNE 14.5 SSW 0.0 85.6 47.1
15:10 6.6 84.5 1012.1 8.4 NNW 21.2 NW 0.0 85.8 43.3
15:15 6.6 84.5 1012.2 6.5 WNW 21.9 NW 0.0 86.0 41.0
15:20 6.6 84.5 1012.1 4.6 N 18.4 NW 0.0 86.3 37.7
15:25 6.6 84.6 1011.9 6.8 N 23.6 N 0.0 86.4 37.1
15:30 6.6 84.8 1011.9 7.7 N 22.6 W 0.0 86.7 34.8
15:35 6.7 84.7 1012.1 5.3 NNW 14.8 NW 0.0 86.9 29.2
15:40 6.7 84.6 1012.2 6.4 WNW 18.0 WNW 0.0 87.1 27.1
15:45 6.8 84.3 1012.2 8.3 WNW 27.2 W 0.0 87.3 24.2
15:50 6.9 84.1 1012.3 11.2 NW 24.0 WNW 0.0 87.6 22.6
15:55 6.9 84.0 1012.3 5.6 W 19.4 NW 0.0 87.7 21.3
16:00 6.9 84.2 1012.2 7.7 NW 20.8 WNW 0.0 87.9 38.3
16:05 6.9 84.2 1012.2 5.5 NW 22.2 N 0.0 88.1 15.4
16:10 6.9 84.2 1012.2 8.7 NW 23.6 WNW 0.0 88.3 12.8
16:15 6.9 84.3 1012.1 6.4 NW 20.1 WSW 0.0 88.5 9.8
16:20 6.9 84.4 1012.1 8.5 WNW 26.1 WNW 0.0 88.7 7.4
16:25 6.9 84.6 1012.1 7.7 NW 25.1 W 0.0 88.9 7.0
16:30 6.9 84.9 1012.1 5.9 NW 20.1 NNW 0.0 89.1 8.3
16:35 6.9 85.2 1012.1 8.3 W 27.9 W 0.0 89.4 6.2
16:40 6.9 85.3 1012.1 8.0 WNW 26.8 SSW 0.0 89.7 1.1
16:45 6.9 85.5 1012.2 8.3 WNW 22.2 WNW 0.0 89.9 0.5
16:50 6.8 85.7 1012.1 9.0 WNW 23.3 W 0.0 90.2 0.2
16:55 6.8 85.7 1012.1 8.9 NW 24.7 W 0.0 90.6 0.1
17:00 6.9 85.5 1012.1 8.4 NW 29.3 W 0.0 90.9 0.1
17:05 6.9 85.4 1012.0 9.9 NW 29.6 NW 0.0 91.2 0.1
17:10 6.8 85.5 1011.9 6.1 N 18.4 N 0.0 91.4 0.1
Máxima 8.1 97.0 1016.9 17.9 WNW 42.7 W 0.0 114.6 515.4
Mínima 3.0 76.6 1011.9 81.1
Total 0.0